Caro, Michigan
Current Conditions -  °F | °C
As of 4:25 PM on Monday 24 Nov 2014 (Local Time) from KCFS Reporting Station
Overcast Overcast  
Wind Chill: 31°   Ceiling: 1500
Heat Index: 41°   Visibility: 10mi
Dew Point: 37°   Wind: 24mph
Humidity: 87%   Direction: 210°SSW
Pressure: 29.27"   Gusts: 39mph
Location:  43.49°N, 83.4°W
Report Text: KCFS 242125Z AUTO 21021G34KT 10SM BKN015 OVC023 05/03 A2927 RMK AO2
Loading
Personal Weather Stations






























Interactive Weather Map New forecast layout! Learn more

10-Day Weather Forecast

Advertisements
Track Severe Weather on mobile